Pagrindinis puslapis
METAR-TAF:

METAR-TAF

Oro uostai :

Taubatė, San Paulas, Brazilija

platuma: 23-02-26S, ilguma: 45-31-00W, Aukštis: 577 m

Dabartinis oras

Ataskaita buvo paskelbta 58 minutes, ne 14:00 UTC
Vėjas 5 kt nuo kintamojo kryptimis
Temperatūra 26°C
Drėgmė 61%
Slėgis 1016 hPa
Matomumas 10 km arba daugiau
Išsisklaidę debesys ne aukštis 3000 ft
Su prošvaistėmis ne aukštis 8000 ft

METAR: SBTA 071400Z VRB05KT 9999 SCT030 BKN080 26/18 Q1016

Laikas: 11:58 (14:58 UTC)


TAF: trūkstamas

Orai ataskaitas ir orų prognozės (METAR, TAF).

turimą stotys yra geltonos ir raudonos taškus žemėlapyje.

Perkelti pele per norėdami pamatyti stoties vardą.

Tada spustelėkite, norėdami matyti oro stebėjimo ir prognozės.

Norėdami pakeisti žemėlapį: spustelėkite ant žalios mygtukų su juodo kryžiaus žemyn,; žalią mygtuką su brūkšneliu, jei norite nutolinti; arba žalių rodyklių gretimoms žemėlapius.


METAR-TAF: